createdAt,value
2019-01-08T00:00:22.263Z,199.10
2019-01-08T00:02:51.582Z,197.45
2019-01-08T00:05:20.806Z,197.60
2019-01-08T00:07:50.024Z,200.28
2019-01-08T00:10:19.395Z,195.68
2019-01-08T00:12:48.675Z,195.30
2019-01-08T00:15:18.046Z,187.40
2019-01-08T00:17:47.239Z,198.72
2019-01-08T00:20:16.469Z,191.45
2019-01-08T00:22:45.755Z,188.10
2019-01-08T00:25:15.028Z,197.78
2019-01-08T00:27:44.255Z,201.07
2019-01-08T00:30:13.538Z,204.80
2019-01-08T00:32:42.790Z,201.62
2019-01-08T00:35:12.073Z,195.45
2019-01-08T00:37:41.519Z,199.55
2019-01-08T00:40:11.895Z,201.50
2019-01-08T00:42:41.083Z,211.80
2019-01-08T00:45:10.499Z,214.30
2019-01-08T00:47:40.795Z,207.62
2019-01-08T00:50:10.244Z,210.20
2019-01-08T00:52:39.507Z,203.02
2019-01-08T00:55:08.846Z,205.92
2019-01-08T00:57:38.210Z,205.07
2019-01-08T01:00:08.190Z,216.73
2019-01-08T01:02:37.509Z,238.82
2019-01-08T01:05:06.747Z,220.22
2019-01-08T01:07:36.203Z,219.75
2019-01-08T01:10:06.167Z,232.75
2019-01-08T01:12:35.699Z,235.28
2019-01-08T01:15:05.731Z,232.87
2019-01-08T01:17:35.170Z,231.28
2019-01-08T01:20:04.920Z,228.95
2019-01-08T01:22:34.386Z,217.43
2019-01-08T01:25:03.938Z,202.70
2019-01-08T01:27:33.366Z,199.97
2019-01-08T01:30:02.808Z,200.50
2019-01-08T01:32:32.002Z,185.15
2019-01-08T01:35:01.362Z,193.07
2019-01-08T01:37:30.676Z,182.32
2019-01-08T01:40:00.163Z,182.55
2019-01-08T01:42:29.491Z,193.90
2019-01-08T01:44:58.774Z,170.10
2019-01-08T01:47:28.116Z,167.95
2019-01-08T01:49:57.518Z,182.88
2019-01-08T01:52:26.794Z,185.37
2019-01-08T01:54:56.067Z,187.60
2019-01-08T01:57:25.267Z,184.90
2019-01-08T01:59:54.545Z,181.80
2019-01-08T02:02:23.836Z,181.87
2019-01-08T02:04:54.519Z,182.90
2019-01-08T02:07:23.744Z,185.45
2019-01-08T02:09:53.200Z,179.40
2019-01-08T02:12:22.440Z,178.68
2019-01-08T02:14:51.810Z,175.78
2019-01-08T02:17:21.048Z,176.47
2019-01-08T02:19:50.366Z,182.97
2019-01-08T02:22:19.600Z,189.62
2019-01-08T02:24:48.824Z,183.70
2019-01-08T02:27:18.143Z,180.00
2019-01-08T02:29:47.499Z,184.52
2019-01-08T02:32:16.704Z,183.57
2019-01-08T02:34:45.998Z,187.40
2019-01-08T02:37:15.655Z,188.47
2019-01-08T02:39:44.952Z,199.47
2019-01-08T02:42:14.191Z,201.32
2019-01-08T02:44:43.639Z,213.20
2019-01-08T02:47:12.996Z,200.60
2019-01-08T02:49:42.243Z,199.10
2019-01-08T02:52:11.570Z,202.50
2019-01-08T02:54:40.911Z,207.72
2019-01-08T02:57:10.242Z,225.62
2019-01-08T02:59:39.619Z,246.18
2019-01-08T03:02:08.919Z,257.37
2019-01-08T03:04:38.151Z,255.87
2019-01-08T03:07:07.455Z,249.35
2019-01-08T03:09:39.634Z,245.55
2019-01-08T03:12:08.918Z,250.93
2019-01-08T03:14:38.199Z,251.77
2019-01-08T03:17:07.466Z,243.22
2019-01-08T03:19:36.771Z,238.03
2019-01-08T03:22:06.122Z,239.10
2019-01-08T03:24:35.415Z,200.82
2019-01-08T03:27:04.638Z,157.70
2019-01-08T03:29:34.005Z,137.40
2019-01-08T03:32:03.200Z,124.07
2019-01-08T03:34:32.506Z,119.95
2019-01-08T03:37:01.783Z,115.25
2019-01-08T03:39:31.045Z,127.67
2019-01-08T03:42:00.250Z,134.05
2019-01-08T03:44:29.543Z,140.50
2019-01-08T03:46:58.863Z,156.02
2019-01-08T03:49:28.107Z,173.72
2019-01-08T03:51:57.391Z,154.78
2019-01-08T03:54:26.646Z,163.65
2019-01-08T03:56:55.903Z,138.80
2019-01-08T03:59:25.212Z,123.13
2019-01-08T04:01:54.424Z,136.22
2019-01-08T04:04:23.733Z,119.37
2019-01-08T04:06:53.193Z,146.13
2019-01-08T04:09:22.463Z,143.68
2019-01-08T04:11:51.742Z,141.65
2019-01-08T04:14:20.984Z,157.33
2019-01-08T04:16:50.231Z,154.42
2019-01-08T04:19:19.523Z,175.15
2019-01-08T04:21:48.747Z,190.40
2019-01-08T04:24:17.980Z,178.15
2019-01-08T04:26:47.178Z,197.93
2019-01-08T04:29:16.529Z,189.18
2019-01-08T04:31:45.799Z,207.72
2019-01-08T04:34:15.144Z,197.13
2019-01-08T04:36:44.442Z,199.97
2019-01-08T04:39:13.711Z,215.92
2019-01-08T04:41:43.015Z,228.60
2019-01-08T04:44:12.303Z,284.32
2019-01-08T04:46:43.582Z,266.77
2019-01-08T04:49:12.789Z,217.40
2019-01-08T04:51:42.183Z,191.60
2019-01-08T04:54:11.474Z,191.93
2019-01-08T04:56:40.860Z,216.02
2019-01-08T04:59:10.156Z,219.20
2019-01-08T05:01:39.431Z,227.30
2019-01-08T05:04:08.735Z,221.17
2019-01-08T05:06:38.063Z,224.85
2019-01-08T05:09:07.458Z,215.20
2019-01-08T05:11:36.771Z,236.95
2019-01-08T05:14:06.035Z,254.00
2019-01-08T05:16:35.342Z,243.15
2019-01-08T05:19:04.603Z,239.42
2019-01-08T05:21:33.937Z,237.35
2019-01-08T05:24:03.229Z,237.23
2019-01-08T05:26:32.582Z,221.68
2019-01-08T05:29:01.982Z,219.27
2019-01-08T05:31:31.263Z,213.40
2019-01-08T05:34:00.486Z,228.07
2019-01-08T05:36:29.751Z,222.40
2019-01-08T05:38:58.991Z,227.13
2019-01-08T05:41:28.286Z,221.70
2019-01-08T05:43:57.558Z,257.77
2019-01-08T05:46:26.859Z,272.70
2019-01-08T05:48:56.098Z,265.40
2019-01-08T05:51:25.471Z,253.40
2019-01-08T05:53:54.803Z,256.00
2019-01-08T05:56:24.106Z,246.72
2019-01-08T05:58:53.292Z,241.17
2019-01-08T06:01:22.710Z,253.37
2019-01-08T06:03:51.968Z,253.80
2019-01-08T06:06:21.183Z,244.13
2019-01-08T06:08:50.451Z,232.03
2019-01-08T06:11:19.666Z,232.73
2019-01-08T06:13:49.047Z,243.17
2019-01-08T06:16:18.272Z,219.28
2019-01-08T06:18:47.696Z,203.88
2019-01-08T06:21:16.991Z,163.70
2019-01-08T06:23:46.266Z,126.82
2019-01-08T06:26:15.491Z,131.85
2019-01-08T06:28:44.751Z,137.60
2019-01-08T06:31:14.066Z,131.30
2019-01-08T06:33:43.326Z,120.03
2019-01-08T06:36:12.547Z,122.30
2019-01-08T06:38:41.794Z,112.53
2019-01-08T06:41:11.168Z,101.17
2019-01-08T06:43:40.443Z,92.87
2019-01-08T06:46:09.841Z,76.13
2019-01-08T06:48:39.039Z,100.53
2019-01-08T06:51:08.248Z,123.73
2019-01-08T06:53:37.464Z,143.67
2019-01-08T06:56:06.696Z,153.90
2019-01-08T06:58:35.985Z,162.33
2019-01-08T07:01:05.216Z,145.23
2019-01-08T07:03:34.554Z,143.65
2019-01-08T07:06:03.831Z,159.80
2019-01-08T07:08:33.166Z,172.87
2019-01-08T07:11:02.363Z,145.93
2019-01-08T07:13:31.619Z,104.20
2019-01-08T07:16:00.914Z,139.07
2019-01-08T07:18:30.095Z,150.27
2019-01-08T07:20:59.391Z,165.00
2019-01-08T07:23:28.704Z,156.00
2019-01-08T07:25:58.086Z,159.40
2019-01-08T07:28:29.245Z,189.70
2019-01-08T07:30:58.424Z,193.07
2019-01-08T07:33:27.822Z,183.53
2019-01-08T07:35:57.102Z,188.90
2019-01-08T07:38:26.346Z,97.90
2019-01-08T07:40:55.886Z,142.20
2019-01-08T07:43:25.097Z,90.17
2019-01-08T07:45:54.506Z,144.37
2019-01-08T07:48:23.910Z,219.23
2019-01-08T07:50:53.330Z,196.70
2019-01-08T07:53:22.772Z,187.73
2019-01-08T07:55:52.032Z,180.33
2019-01-08T07:58:21.322Z,171.37
2019-01-08T08:00:50.510Z,176.67
2019-01-08T08:03:19.794Z,213.10
2019-01-08T08:05:49.022Z,286.73
2019-01-08T08:08:18.239Z,278.40
2019-01-08T08:10:47.545Z,278.33
2019-01-08T08:13:18.080Z,266.33
2019-01-08T08:15:47.348Z,245.90
2019-01-08T08:18:16.619Z,233.03
2019-01-08T08:20:45.940Z,225.03
2019-01-08T08:23:15.142Z,221.97
2019-01-08T08:25:44.418Z,206.03
2019-01-08T08:28:13.778Z,197.43
2019-01-08T08:30:43.148Z,228.20
2019-01-08T08:33:12.863Z,209.93
2019-01-08T08:35:42.133Z,231.47
2019-01-08T08:38:11.371Z,211.30
2019-01-08T08:40:40.731Z,217.77
2019-01-08T08:43:09.991Z,221.77
2019-01-08T08:45:39.435Z,227.00
2019-01-08T08:48:08.746Z,216.83
2019-01-08T08:50:38.320Z,195.00
2019-01-08T08:53:07.682Z,179.20
2019-01-08T08:55:37.070Z,174.37
2019-01-08T08:58:06.359Z,169.07
2019-01-08T09:00:35.754Z,185.47
2019-01-08T09:03:05.072Z,176.57
2019-01-08T09:05:34.375Z,170.57
2019-01-08T09:08:03.627Z,172.23
2019-01-08T09:10:32.907Z,154.67
2019-01-08T09:13:02.306Z,163.23
2019-01-08T09:15:31.623Z,165.50
2019-01-08T09:18:00.931Z,169.00
2019-01-08T09:20:30.531Z,170.70
2019-01-08T09:23:00.018Z,163.10
2019-01-08T09:25:29.302Z,145.23
2019-01-08T09:27:58.759Z,139.60
2019-01-08T09:30:27.979Z,146.07
2019-01-08T09:32:57.373Z,136.03
2019-01-08T09:35:26.811Z,128.83
2019-01-08T09:37:56.240Z,134.87
2019-01-08T09:40:25.527Z,137.00
2019-01-08T09:42:55.030Z,136.17
2019-01-08T09:45:24.429Z,139.07
2019-01-08T09:47:53.839Z,140.17
2019-01-08T09:50:23.219Z,150.07
2019-01-08T09:52:52.620Z,142.73
2019-01-08T09:55:22.120Z,161.87
2019-01-08T09:57:51.527Z,165.13
2019-01-08T10:00:20.814Z,160.80
2019-01-08T10:02:50.125Z,153.60
2019-01-08T10:05:19.529Z,155.60
2019-01-08T10:07:48.860Z,139.07
2019-01-08T10:10:20.251Z,139.67
2019-01-08T10:12:49.592Z,134.97
2019-01-08T10:15:18.958Z,139.83
2019-01-08T10:17:48.303Z,128.73
2019-01-08T10:20:17.590Z,114.60
2019-01-08T10:22:46.816Z,115.77
2019-01-08T10:25:16.115Z,105.50
2019-01-08T10:27:45.449Z,76.47
2019-01-08T10:30:14.683Z,68.17
2019-01-08T10:32:43.991Z,57.30
2019-01-08T10:35:13.365Z,52.07
2019-01-08T10:37:42.683Z,45.30
2019-01-08T10:40:12.055Z,48.00
2019-01-08T10:42:41.429Z,47.90
2019-01-08T10:45:10.771Z,41.10
2019-01-08T10:47:40.199Z,36.83
2019-01-08T10:50:09.704Z,36.77
2019-01-08T10:52:39.032Z,32.60
2019-01-08T10:55:08.440Z,37.97
2019-01-08T10:57:37.836Z,34.77
2019-01-08T11:00:07.955Z,31.93
2019-01-08T11:02:37.306Z,25.80
2019-01-08T11:05:07.062Z,27.77
2019-01-08T11:07:36.571Z,31.43
2019-01-08T11:10:06.087Z,27.00
2019-01-08T11:12:35.466Z,30.53
2019-01-08T11:15:05.025Z,27.90
2019-01-08T11:17:34.366Z,21.10
2019-01-08T11:20:03.840Z,26.37
2019-01-08T11:22:33.040Z,43.33
2019-01-08T11:25:02.440Z,58.67
2019-01-08T11:27:31.894Z,37.27
2019-01-08T11:30:01.328Z,27.43
2019-01-08T11:32:30.649Z,27.70
2019-01-08T11:35:00.166Z,34.03
2019-01-08T11:37:29.612Z,32.17
2019-01-08T11:39:59.026Z,38.83
2019-01-08T11:42:28.406Z,45.87
2019-01-08T11:44:57.852Z,83.07
2019-01-08T11:47:27.127Z,77.80
2019-01-08T11:49:56.362Z,45.20
2019-01-08T11:52:25.760Z,42.33
2019-01-08T11:54:55.039Z,47.67
2019-01-08T11:57:24.392Z,47.13
2019-01-08T11:59:53.751Z,31.57
2019-01-08T12:02:23.015Z,35.07
2019-01-08T12:04:52.383Z,37.50
2019-01-08T12:07:21.772Z,39.10
2019-01-08T12:09:50.952Z,46.20
2019-01-08T12:12:20.271Z,51.00
2019-01-08T12:14:49.860Z,36.30
2019-01-08T12:17:19.140Z,34.07
2019-01-08T12:19:48.554Z,36.30
2019-01-08T12:22:17.882Z,36.30
2019-01-08T12:24:47.172Z,46.33
2019-01-08T12:27:16.487Z,49.00
2019-01-08T12:29:45.768Z,53.80
2019-01-08T12:32:16.690Z,41.47
2019-01-08T12:34:46.070Z,47.20
2019-01-08T12:37:15.478Z,47.43
2019-01-08T12:39:44.832Z,41.57
2019-01-08T12:42:14.125Z,38.50
2019-01-08T12:44:43.465Z,43.53
2019-01-08T12:47:12.782Z,37.17
2019-01-08T12:49:42.154Z,37.93
2019-01-08T12:52:11.539Z,34.63
2019-01-08T12:54:40.836Z,33.87
2019-01-08T12:57:10.059Z,34.07
2019-01-08T12:59:39.359Z,36.57
2019-01-08T13:02:14.579Z,34.63
2019-01-08T13:04:39.786Z,36.50
2019-01-08T13:07:09.165Z,36.87
2019-01-08T13:09:38.351Z,40.47
2019-01-08T13:12:07.690Z,30.50
2019-01-08T13:14:37.074Z,42.37
2019-01-08T13:17:11.468Z,36.03
2019-01-08T13:19:37.510Z,34.00
2019-01-08T13:22:06.731Z,40.87
2019-01-08T13:24:35.986Z,37.00
2019-01-08T13:27:05.371Z,39.20
2019-01-08T13:29:34.663Z,35.77
2019-01-08T13:32:03.931Z,37.43
2019-01-08T13:34:33.297Z,36.13
2019-01-08T13:37:02.616Z,28.50
2019-01-08T13:39:32.005Z,35.33
2019-01-08T13:42:01.352Z,30.87
2019-01-08T13:44:30.763Z,26.70
2019-01-08T13:47:00.050Z,26.50
2019-01-08T13:49:29.503Z,24.27
2019-01-08T13:51:58.801Z,26.27
2019-01-08T13:54:28.248Z,22.37
2019-01-08T13:56:57.597Z,28.20
2019-01-08T13:59:26.900Z,27.27
2019-01-08T14:01:56.271Z,27.10
2019-01-08T14:04:25.539Z,29.23
2019-01-08T14:06:54.779Z,22.87
2019-01-08T14:09:24.062Z,31.50
2019-01-08T14:11:53.431Z,34.90
2019-01-08T14:14:22.657Z,33.63
2019-01-08T14:16:51.856Z,28.47
2019-01-08T14:19:21.105Z,28.63
2019-01-08T14:21:50.368Z,34.87
2019-01-08T14:24:19.702Z,34.53
2019-01-08T14:26:49.028Z,36.47
2019-01-08T14:29:18.371Z,34.50
2019-01-08T14:31:47.628Z,35.13
2019-01-08T14:34:16.858Z,45.43
2019-01-08T14:36:46.355Z,52.23
2019-01-08T14:39:15.599Z,60.97
2019-01-08T14:41:44.807Z,61.63
2019-01-08T14:44:14.079Z,54.27
2019-01-08T14:46:43.339Z,44.73
2019-01-08T14:49:12.595Z,47.60
2019-01-08T14:51:41.775Z,51.90
2019-01-08T14:54:10.995Z,51.67
2019-01-08T14:56:40.299Z,53.73
2019-01-08T14:59:09.666Z,53.83
2019-01-08T15:01:38.847Z,63.63
2019-01-08T15:04:08.103Z,64.43
2019-01-08T15:06:37.431Z,59.07
2019-01-08T15:09:08.124Z,55.77
2019-01-08T15:11:37.493Z,57.30
2019-01-08T15:14:06.767Z,57.80
2019-01-08T15:16:37.823Z,59.97
2019-01-08T15:19:07.188Z,60.90
2019-01-08T15:21:36.540Z,58.07
2019-01-08T15:24:05.851Z,190.07
2019-01-08T15:26:35.174Z,69.47
2019-01-08T15:29:04.355Z,60.50
2019-01-08T15:31:33.576Z,55.00
2019-01-08T15:34:02.849Z,53.40
2019-01-08T15:36:32.143Z,57.97
2019-01-08T15:39:01.363Z,54.17
2019-01-08T15:41:30.643Z,57.47
2019-01-08T15:43:59.962Z,59.43
2019-01-08T15:46:29.151Z,56.47
2019-01-08T15:48:58.371Z,62.20
2019-01-08T15:51:27.609Z,68.47
2019-01-08T15:53:58.114Z,75.17
2019-01-08T15:56:27.470Z,72.17
2019-01-08T15:58:56.812Z,72.03
2019-01-08T16:01:26.107Z,70.67
2019-01-08T16:03:55.435Z,70.10
2019-01-08T16:06:24.725Z,67.50
2019-01-08T16:08:53.915Z,63.77
2019-01-08T16:11:23.171Z,66.63
2019-01-08T16:13:52.362Z,69.47
2019-01-08T16:16:21.668Z,79.17
2019-01-08T16:18:50.942Z,66.47
2019-01-08T16:21:20.152Z,74.90
2019-01-08T16:23:49.346Z,64.87
2019-01-08T16:26:18.564Z,69.63
2019-01-08T16:28:48.863Z,76.90
2019-01-08T16:31:18.228Z,58.03
2019-01-08T16:33:47.580Z,70.00
2019-01-08T16:36:19.662Z,63.27
2019-01-08T16:38:49.111Z,64.23
2019-01-08T16:41:18.519Z,56.40
2019-01-08T16:43:47.884Z,65.97
2019-01-08T16:46:17.646Z,94.27
2019-01-08T16:48:47.287Z,86.30
2019-01-08T16:51:16.789Z,94.17
2019-01-08T16:53:46.191Z,80.20
2019-01-08T16:56:15.896Z,79.20
2019-01-08T16:58:45.300Z,82.63
2019-01-08T17:01:14.929Z,76.67
2019-01-08T17:03:44.329Z,79.13
2019-01-08T17:06:13.662Z,82.70
2019-01-08T17:08:43.179Z,81.17
2019-01-08T17:11:12.544Z,82.83
2019-01-08T17:13:42.033Z,88.43
2019-01-08T17:16:11.419Z,77.90
2019-01-08T17:18:59.598Z,81.97
2019-01-08T17:21:29.085Z,107.30
2019-01-08T17:23:58.798Z,115.37
2019-01-08T17:26:28.172Z,144.90
2019-01-08T17:29:00.775Z,149.17
2019-01-08T17:31:30.161Z,136.67
2019-01-08T17:33:59.601Z,132.70
2019-01-08T17:36:29.003Z,159.57
2019-01-08T17:39:01.480Z,139.07
2019-01-08T17:41:31.022Z,139.67
2019-01-08T17:44:00.535Z,161.57
2019-01-08T17:46:30.133Z,153.77
2019-01-08T17:48:59.542Z,144.33
2019-01-08T17:51:29.060Z,135.90
2019-01-08T17:53:58.503Z,133.60
2019-01-08T17:56:28.265Z,122.50
2019-01-08T17:59:25.748Z,101.30
2019-01-08T18:02:03.159Z,93.40
2019-01-08T18:04:32.636Z,94.03
2019-01-08T18:07:02.117Z,116.50
2019-01-08T18:09:39.460Z,126.87
2019-01-08T18:12:10.550Z,108.17
2019-01-08T18:14:40.700Z,92.17
2019-01-08T18:17:15.503Z,80.07
2019-01-08T18:19:45.271Z,77.53
2019-01-08T18:22:15.819Z,77.33
2019-01-08T18:24:45.141Z,71.60
2019-01-08T18:27:14.665Z,73.67
2019-01-08T18:29:44.002Z,223.60
2019-01-08T18:32:13.408Z,376.07
2019-01-08T18:34:42.795Z,351.23
2019-01-08T18:37:12.235Z,162.23
2019-01-08T18:39:41.746Z,137.30
2019-01-08T18:42:11.405Z,146.37
2019-01-08T18:44:40.982Z,114.63
2019-01-08T18:47:10.388Z,96.87
2019-01-08T18:49:39.991Z,90.80
2019-01-08T18:52:09.509Z,93.20
2019-01-08T18:54:38.868Z,109.23
2019-01-08T18:57:08.247Z,112.77
2019-01-08T18:59:40.511Z,110.43
2019-01-08T19:02:09.885Z,97.70
2019-01-08T19:04:39.295Z,73.20
2019-01-08T19:07:08.657Z,76.30
2019-01-08T19:09:39.938Z,91.23
2019-01-08T19:12:17.897Z,100.70
2019-01-08T19:14:47.301Z,91.57
2019-01-08T19:17:16.704Z,79.60
2019-01-08T19:19:46.092Z,82.63
2019-01-08T19:22:15.750Z,95.50
2019-01-08T19:24:45.103Z,91.57
2019-01-08T19:27:14.447Z,81.23
2019-01-08T19:29:43.752Z,83.77
2019-01-08T19:32:13.223Z,69.87
2019-01-08T19:34:42.491Z,74.23
2019-01-08T19:37:11.854Z,65.37
2019-01-08T19:39:41.342Z,77.73
2019-01-08T19:42:10.810Z,75.33
2019-01-08T19:44:40.208Z,78.63
2019-01-08T19:47:09.616Z,80.13
2019-01-08T19:49:39.235Z,66.20
2019-01-08T19:52:08.755Z,68.27
2019-01-08T19:54:38.177Z,69.80
2019-01-08T19:57:07.505Z,65.77
2019-01-08T19:59:36.906Z,68.83
2019-01-08T20:02:06.459Z,76.40
2019-01-08T20:04:35.837Z,86.43
2019-01-08T20:07:05.519Z,91.07
2019-01-08T20:09:35.027Z,77.70
2019-01-08T20:12:04.611Z,73.67
2019-01-08T20:14:34.703Z,77.40
2019-01-08T20:17:04.421Z,79.33
2019-01-08T20:19:34.097Z,73.67
2019-01-08T20:22:03.726Z,75.13
2019-01-08T20:24:33.489Z,80.80
2019-01-08T20:27:03.142Z,74.17
2019-01-08T20:29:32.811Z,74.40
2019-01-08T20:32:02.747Z,75.90
2019-01-08T20:34:32.313Z,79.27
2019-01-08T20:37:18.714Z,69.07
2019-01-08T20:39:48.203Z,79.50
2019-01-08T20:42:17.941Z,85.67
2019-01-08T20:44:47.349Z,87.63
2019-01-08T20:47:16.685Z,103.23
2019-01-08T20:49:48.299Z,122.77
2019-01-08T20:52:17.846Z,113.47
2019-01-08T20:54:47.387Z,106.63
2019-01-08T20:57:17.100Z,96.77
2019-01-08T20:59:46.541Z,100.80
2019-01-08T21:02:16.087Z,127.20
2019-01-08T21:04:45.592Z,115.57
2019-01-08T21:07:17.454Z,115.63
2019-01-08T21:09:46.920Z,136.40
2019-01-08T21:12:16.648Z,121.87
2019-01-08T21:14:46.179Z,120.57
2019-01-08T21:17:15.618Z,107.73
2019-01-08T21:19:45.281Z,101.60
2019-01-08T21:22:14.851Z,101.90
2019-01-08T21:24:44.514Z,116.93
2019-01-08T21:27:14.462Z,128.63
2019-01-08T21:29:44.079Z,127.50
2019-01-08T21:32:13.940Z,126.20
2019-01-08T21:34:44.529Z,142.83
2019-01-08T21:37:14.324Z,158.40
2019-01-08T21:39:43.847Z,142.80
2019-01-08T21:42:13.526Z,143.23
2019-01-08T21:44:42.960Z,126.03
2019-01-08T21:47:12.434Z,108.03
2019-01-08T21:49:42.244Z,119.83
2019-01-08T21:52:11.724Z,114.90
2019-01-08T21:54:41.066Z,120.90
2019-01-08T21:57:10.511Z,126.77
2019-01-08T21:59:39.869Z,110.73
2019-01-08T22:02:09.815Z,114.73
2019-01-08T22:04:39.361Z,114.77
2019-01-08T22:07:08.712Z,121.33
2019-01-08T22:09:40.713Z,126.30
2019-01-08T22:12:10.267Z,105.93
2019-01-08T22:14:39.916Z,124.80
2019-01-08T22:17:09.289Z,122.40
2019-01-08T22:19:38.691Z,127.90
2019-01-08T22:22:08.043Z,123.30
2019-01-08T22:24:37.399Z,129.10
2019-01-08T22:27:06.843Z,137.43
2019-01-08T22:29:36.209Z,163.83
2019-01-08T22:32:05.991Z,148.47
2019-01-08T22:34:35.448Z,172.70
2019-01-08T22:37:04.799Z,173.07
2019-01-08T22:39:34.119Z,151.73
2019-01-08T22:42:03.841Z,147.63
2019-01-08T22:44:33.290Z,146.67
2019-01-08T22:47:02.895Z,144.93
2019-01-08T22:49:32.283Z,126.57
2019-01-08T22:52:01.703Z,135.90
2019-01-08T22:54:31.210Z,134.13
2019-01-08T22:57:00.681Z,125.20
2019-01-08T22:59:31.492Z,115.23
2019-01-08T23:02:01.098Z,107.40
2019-01-08T23:04:30.557Z,94.33
2019-01-08T23:07:00.122Z,93.73
2019-01-08T23:09:30.137Z,91.37
2019-01-08T23:11:59.869Z,88.17
2019-01-08T23:14:29.567Z,90.83
2019-01-08T23:16:59.029Z,89.47
2019-01-08T23:19:28.651Z,97.27
2019-01-08T23:21:58.211Z,92.40
2019-01-08T23:24:27.711Z,96.83
2019-01-08T23:26:57.201Z,90.23
2019-01-08T23:29:26.871Z,106.37
2019-01-08T23:31:56.367Z,111.73
2019-01-08T23:34:25.905Z,108.60
2019-01-08T23:36:55.237Z,102.47
2019-01-08T23:39:24.782Z,108.17
2019-01-08T23:41:54.158Z,105.67
2019-01-08T23:44:23.573Z,102.40
2019-01-08T23:46:52.962Z,90.70
2019-01-08T23:49:22.323Z,91.40
2019-01-08T23:52:03.720Z,82.37
2019-01-08T23:54:36.214Z,75.50
2019-01-08T23:57:06.540Z,83.03
2019-01-08T23:59:35.973Z,79.10
